CheckWX is a tool to help pilots better visualize weather data.  It is not intended as a substitute for an official pre-flight weather briefing.

16:54:40 UTC

KMLI TAF
Quad City International Airport
Moline, Illinois, USA
KMLI 181340Z 1814/1912 08003KT P6SM SKC FM181800 13004KT P6SM SCT045 BKN060 FM182300 VRB03KT P6SM BKN050

Jun-18@
14:00 UTC

Jun-18 @ 14:00 UTC

Jun-18@
18:00 UTC

Jun-18 @ 18:00 UTC

KMLI 181340Z 1814/1912 08003KT P6SM SKC
Wind
  • 080° at 3 KTS
Cloud Levels
  • Clear skies

Jun-18@
18:00 UTC

Jun-18 @ 18:00 UTC

Jun-18@
23:00 UTC

Jun-18 @ 23:00 UTC

FM181800 13004KT P6SM SCT045 BKN060

From

From Standard forecast or significant change

Wind
  • 130° at 4 KTS
Cloud Levels
  • Scattered at 4,500' AGL
  • Broken at 6,000' AGL

Jun-18@
23:00 UTC

Jun-18 @ 23:00 UTC

Jun-19@
12:00 UTC

Jun-19 @ 12:00 UTC

FM182300 VRB03KT P6SM BKN050

From

From Standard forecast or significant change

Wind
  • Variable at 3 KTS
Cloud Levels
  • Broken at 5,000' AGL